sensor_id;sensor_type;location;lat;lon;timestamp;pressure;altitude;pressure_sealevel;temperature;humidity
68822;BME280;55834;50.870;4.606;2024-03-23T00:56:14;100512.31;;;8.00;57.54
68822;BME280;55834;50.870;4.606;2024-03-23T00:58:39;100506.72;;;8.17;58.24
68822;BME280;55834;50.870;4.606;2024-03-23T01:01:05;100505.66;;;8.24;57.54
68822;BME280;55834;50.870;4.606;2024-03-23T01:03:30;100500.19;;;8.35;57.83
68822;BME280;55834;50.870;4.606;2024-03-23T01:06:02;100492.13;;;8.41;57.96
68822;BME280;55834;50.870;4.606;2024-03-23T01:08:29;100493.19;;;8.34;56.56
68822;BME280;55834;50.870;4.606;2024-03-23T01:10:55;100491.34;;;8.38;57.38
68822;BME280;55834;50.870;4.606;2024-03-23T01:13:21;100488.53;;;8.45;57.09
68822;BME280;55834;50.870;4.606;2024-03-23T01:15:51;100487.56;;;8.49;56.47
68822;BME280;55834;50.870;4.606;2024-03-23T01:18:20;100484.09;;;8.47;56.78
68822;BME280;55834;50.870;4.606;2024-03-23T01:20:46;100486.88;;;8.41;56.50
68822;BME280;55834;50.870;4.606;2024-03-23T01:23:12;100485.97;;;8.42;56.48
68822;BME280;55834;50.870;4.606;2024-03-23T01:25:37;100479.81;;;8.43;56.95
68822;BME280;55834;50.870;4.606;2024-03-23T01:28:03;100480.59;;;8.48;57.16
68822;BME280;55834;50.870;4.606;2024-03-23T01:30:29;100482.44;;;8.43;56.15
68822;BME280;55834;50.870;4.606;2024-03-23T01:32:55;100471.09;;;8.41;56.96
68822;BME280;55834;50.870;4.606;2024-03-23T01:35:21;100466.94;;;8.31;56.49
68822;BME280;55834;50.870;4.606;2024-03-23T01:37:46;100467.13;;;8.23;57.21
68822;BME280;55834;50.870;4.606;2024-03-23T01:40:12;100472.69;;;8.09;57.56
68822;BME280;55834;50.870;4.606;2024-03-23T01:42:40;100469.25;;;8.04;57.11
68822;BME280;55834;50.870;4.606;2024-03-23T01:45:08;100475.66;;;7.92;56.76
68822;BME280;55834;50.870;4.606;2024-03-23T01:47:34;100467.56;;;8.02;58.07
68822;BME280;55834;50.870;4.606;2024-03-23T01:49:59;100466.69;;;8.03;56.99
68822;BME280;55834;50.870;4.606;2024-03-23T01:52:26;100461.44;;;8.01;56.87
68822;BME280;55834;50.870;4.606;2024-03-23T01:54:52;100463.28;;;7.98;57.15
68822;BME280;55834;50.870;4.606;2024-03-23T01:57:18;100464.13;;;8.00;56.67
68822;BME280;55834;50.870;4.606;2024-03-23T01:59:43;100456.19;;;8.01;56.53
68822;BME280;55834;50.870;4.606;2024-03-23T02:02:09;100456.25;;;8.00;56.34
68822;BME280;55834;50.870;4.606;2024-03-23T02:04:34;100459.88;;;7.94;55.99
68822;BME280;55834;50.870;4.606;2024-03-23T02:07:00;100465.25;;;7.88;55.69
68822;BME280;55834;50.870;4.606;2024-03-23T02:09:25;100465.47;;;7.77;54.96
68822;BME280;55834;50.870;4.606;2024-03-23T02:11:50;100463.63;;;7.82;56.86
68822;BME280;55834;50.870;4.606;2024-03-23T02:14:16;100458.75;;;7.64;54.80
68822;BME280;55834;50.870;4.606;2024-03-23T02:16:43;100456.81;;;7.74;56.80
68822;BME280;55834;50.870;4.606;2024-03-23T02:19:08;100461.44;;;7.61;55.15
68822;BME280;55834;50.870;4.606;2024-03-23T02:21:33;100455.22;;;7.65;56.33
68822;BME280;55834;50.870;4.606;2024-03-23T02:24:00;100445.38;;;7.75;56.70
68822;BME280;55834;50.870;4.606;2024-03-23T02:26:25;100436.50;;;7.82;56.96
68822;BME280;55834;50.870;4.606;2024-03-23T02:28:51;100436.34;;;7.88;56.36
68822;BME280;55834;50.870;4.606;2024-03-23T02:31:16;100437.13;;;7.91;56.66
68822;BME280;55834;50.870;4.606;2024-03-23T02:33:42;100442.69;;;7.78;56.68
68822;BME280;55834;50.870;4.606;2024-03-23T02:36:07;100434.81;;;7.78;56.53
68822;BME280;55834;50.870;4.606;2024-03-23T02:38:32;100451.50;;;7.33;56.57
68822;BME280;55834;50.870;4.606;2024-03-23T02:41:04;100468.34;;;6.72;59.80
68822;BME280;55834;50.870;4.606;2024-03-23T02:43:30;100451.88;;;7.13;60.26
68822;BME280;55834;50.870;4.606;2024-03-23T02:45:55;100460.63;;;6.61;59.96
68822;BME280;55834;50.870;4.606;2024-03-23T02:48:21;100461.16;;;6.83;60.08
68822;BME280;55834;50.870;4.606;2024-03-23T02:50:46;100461.94;;;6.88;59.63
68822;BME280;55834;50.870;4.606;2024-03-23T02:53:11;100460.84;;;7.00;60.09
68822;BME280;55834;50.870;4.606;2024-03-23T02:55:37;100458.56;;;6.82;59.33
68822;BME280;55834;50.870;4.606;2024-03-23T02:58:02;100453.16;;;6.91;59.03
68822;BME280;55834;50.870;4.606;2024-03-23T03:00:28;100443.28;;;7.04;59.80
68822;BME280;55834;50.870;4.606;2024-03-23T03:02:54;100450.19;;;6.56;60.09
68822;BME280;55834;50.870;4.606;2024-03-23T03:05:19;100444.38;;;6.92;60.08
68822;BME280;55834;50.870;4.606;2024-03-23T03:07:44;100455.59;;;7.01;59.61
68822;BME280;55834;50.870;4.606;2024-03-23T03:10:10;100446.50;;;7.19;59.20
68822;BME280;55834;50.870;4.606;2024-03-23T03:12:37;100461.28;;;6.75;58.34
68822;BME280;55834;50.870;4.606;2024-03-23T03:15:03;100454.16;;;6.84;59.48
68822;BME280;55834;50.870;4.606;2024-03-23T03:17:29;100451.84;;;6.62;58.67
68822;BME280;55834;50.870;4.606;2024-03-23T03:19:55;100445.94;;;7.02;59.02
68822;BME280;55834;50.870;4.606;2024-03-23T03:22:21;100447.53;;;7.11;58.22
68822;BME280;55834;50.870;4.606;2024-03-23T03:24:47;100444.00;;;7.12;58.42
68822;BME280;55834;50.870;4.606;2024-03-23T03:27:12;100435.69;;;7.35;58.03
68822;BME280;55834;50.870;4.606;2024-03-23T03:29:38;100445.09;;;7.00;56.64
68822;BME280;55834;50.870;4.606;2024-03-23T03:32:03;100440.44;;;7.16;57.38
68822;BME280;55834;50.870;4.606;2024-03-23T03:34:29;100444.78;;;7.17;57.72
68822;BME280;55834;50.870;4.606;2024-03-23T03:36:55;100444.31;;;6.95;56.87
68822;BME280;55834;50.870;4.606;2024-03-23T03:39:21;100431.34;;;7.34;57.92
68822;BME280;55834;50.870;4.606;2024-03-23T03:41:48;100437.13;;;7.51;57.63
68822;BME280;55834;50.870;4.606;2024-03-23T03:44:13;100434.75;;;7.37;55.71
68822;BME280;55834;50.870;4.606;2024-03-23T03:46:38;100433.66;;;7.49;56.56
68822;BME280;55834;50.870;4.606;2024-03-23T03:49:04;100424.91;;;7.50;55.61
68822;BME280;55834;50.870;4.606;2024-03-23T03:51:30;100439.03;;;7.44;55.16
68822;BME280;55834;50.870;4.606;2024-03-23T03:53:56;100432.00;;;7.43;55.84
68822;BME280;55834;50.870;4.606;2024-03-23T03:56:21;100430.44;;;7.35;55.73
68822;BME280;55834;50.870;4.606;2024-03-23T03:58:48;100433.38;;;7.19;54.46
68822;BME280;55834;50.870;4.606;2024-03-23T04:01:13;100427.16;;;7.23;55.33
68822;BME280;55834;50.870;4.606;2024-03-23T04:03:38;100442.28;;;7.11;55.76
68822;BME280;55834;50.870;4.606;2024-03-23T04:06:09;100446.97;;;6.93;56.07
68822;BME280;55834;50.870;4.606;2024-03-23T04:08:34;100449.56;;;6.95;56.20
68822;BME280;55834;50.870;4.606;2024-03-23T04:10:59;100457.03;;;6.68;56.58
68822;BME280;55834;50.870;4.606;2024-03-23T04:13:25;100457.09;;;6.62;56.47
68822;BME280;55834;50.870;4.606;2024-03-23T04:15:56;100455.13;;;6.78;57.49
68822;BME280;55834;50.870;4.606;2024-03-23T04:18:22;100457.97;;;6.63;56.27
68822;BME280;55834;50.870;4.606;2024-03-23T04:20:51;100461.06;;;6.89;56.25
68822;BME280;55834;50.870;4.606;2024-03-23T04:23:17;100462.03;;;6.82;56.09
68822;BME280;55834;50.870;4.606;2024-03-23T04:25:42;100450.66;;;6.83;55.56
68822;BME280;55834;50.870;4.606;2024-03-23T04:28:08;100456.84;;;6.81;55.19
68822;BME280;55834;50.870;4.606;2024-03-23T04:30:34;100458.38;;;6.38;55.65
68822;BME280;55834;50.870;4.606;2024-03-23T04:32:59;100454.63;;;6.51;57.03
68822;BME280;55834;50.870;4.606;2024-03-23T04:35:26;100456.41;;;6.51;57.82
68822;BME280;55834;50.870;4.606;2024-03-23T04:37:51;100466.50;;;6.77;57.58
68822;BME280;55834;50.870;4.606;2024-03-23T04:40:21;100463.66;;;6.91;56.75
68822;BME280;55834;50.870;4.606;2024-03-23T04:42:46;100456.69;;;6.90;55.11
68822;BME280;55834;50.870;4.606;2024-03-23T04:45:11;100465.75;;;6.70;55.99
68822;BME280;55834;50.870;4.606;2024-03-23T04:47:40;100459.81;;;6.56;55.88
68822;BME280;55834;50.870;4.606;2024-03-23T04:50:05;100466.44;;;6.80;56.58
68822;BME280;55834;50.870;4.606;2024-03-23T04:52:31;100468.34;;;6.15;57.37
68822;BME280;55834;50.870;4.606;2024-03-23T04:54:56;100466.84;;;6.55;57.65
68822;BME280;55834;50.870;4.606;2024-03-23T04:57:22;100465.88;;;6.61;56.19
68822;BME280;55834;50.870;4.606;2024-03-23T04:59:47;100471.13;;;6.60;55.53
68822;BME280;55834;50.870;4.606;2024-03-23T05:02:13;100460.03;;;6.42;55.46
68822;BME280;55834;50.870;4.606;2024-03-23T05:04:38;100449.75;;;6.28;55.82
68822;BME280;55834;50.870;4.606;2024-03-23T05:07:05;100456.81;;;6.26;57.10
68822;BME280;55834;50.870;4.606;2024-03-23T05:09:31;100460.88;;;6.44;55.97
68822;BME280;55834;50.870;4.606;2024-03-23T05:11:58;100467.28;;;6.26;55.45
68822;BME280;55834;50.870;4.606;2024-03-23T05:14:23;100471.53;;;5.72;56.58
68822;BME280;55834;50.870;4.606;2024-03-23T05:16:48;100463.94;;;6.15;55.79
68822;BME280;55834;50.870;4.606;2024-03-23T05:19:14;100465.91;;;6.01;55.72
68822;BME280;55834;50.870;4.606;2024-03-23T05:21:39;100464.34;;;5.86;55.42
68822;BME280;55834;50.870;4.606;2024-03-23T05:24:05;100463.50;;;5.84;55.58
68822;BME280;55834;50.870;4.606;2024-03-23T05:26:30;100462.84;;;5.66;55.25
68822;BME280;55834;50.870;4.606;2024-03-23T05:28:56;100460.84;;;5.88;55.70
68822;BME280;55834;50.870;4.606;2024-03-23T05:31:25;100455.81;;;5.72;55.72
68822;BME280;55834;50.870;4.606;2024-03-23T05:33:50;100465.72;;;6.15;56.03
68822;BME280;55834;50.870;4.606;2024-03-23T05:36:16;100457.34;;;5.88;55.71
68822;BME280;55834;50.870;4.606;2024-03-23T05:38:42;100470.28;;;5.99;55.88
68822;BME280;55834;50.870;4.606;2024-03-23T05:41:07;100462.50;;;5.94;55.26
68822;BME280;55834;50.870;4.606;2024-03-23T05:43:32;100476.06;;;6.24;55.48
68822;BME280;55834;50.870;4.606;2024-03-23T05:45:59;100469.16;;;6.18;54.24
68822;BME280;55834;50.870;4.606;2024-03-23T05:48:28;100475.19;;;6.23;55.39
68822;BME280;55834;50.870;4.606;2024-03-23T05:50:55;100473.41;;;6.25;54.98
68822;BME280;55834;50.870;4.606;2024-03-23T05:53:21;100471.91;;;6.09;55.79
68822;BME280;55834;50.870;4.606;2024-03-23T05:55:46;100471.69;;;6.24;55.90
68822;BME280;55834;50.870;4.606;2024-03-23T05:58:15;100476.06;;;6.22;56.69
68822;BME280;55834;50.870;4.606;2024-03-23T06:00:42;100477.84;;;6.22;57.28
68822;BME280;55834;50.870;4.606;2024-03-23T06:03:10;100473.81;;;5.98;56.80
68822;BME280;55834;50.870;4.606;2024-03-23T06:05:39;100478.66;;;6.25;58.02
68822;BME280;55834;50.870;4.606;2024-03-23T06:08:05;100484.44;;;6.47;57.41
68822;BME280;55834;50.870;4.606;2024-03-23T06:10:30;100485.09;;;6.60;56.79
68822;BME280;55834;50.870;4.606;2024-03-23T06:12:56;100484.34;;;5.93;56.59
68822;BME280;55834;50.870;4.606;2024-03-23T06:15:22;100477.16;;;5.38;58.47
68822;BME280;55834;50.870;4.606;2024-03-23T06:17:48;100476.19;;;6.15;57.94
68822;BME280;55834;50.870;4.606;2024-03-23T06:20:14;100481.78;;;6.50;57.14
68822;BME280;55834;50.870;4.606;2024-03-23T06:22:40;100481.50;;;6.70;56.83
68822;BME280;55834;50.870;4.606;2024-03-23T06:25:06;100479.19;;;6.49;56.79
68822;BME280;55834;50.870;4.606;2024-03-23T06:27:32;100477.84;;;6.22;57.05
68822;BME280;55834;50.870;4.606;2024-03-23T06:29:58;100493.97;;;6.53;57.58
68822;BME280;55834;50.870;4.606;2024-03-23T06:32:23;100482.44;;;6.04;57.38
68822;BME280;55834;50.870;4.606;2024-03-23T06:34:49;100487.13;;;5.82;57.52
68822;BME280;55834;50.870;4.606;2024-03-23T06:37:14;100490.09;;;5.52;57.82
68822;BME280;55834;50.870;4.606;2024-03-23T06:39:39;100490.88;;;5.60;58.61
68822;BME280;55834;50.870;4.606;2024-03-23T06:42:05;100490.25;;;5.38;58.79
68822;BME280;55834;50.870;4.606;2024-03-23T06:44:30;100500.41;;;5.65;58.99
68822;BME280;55834;50.870;4.606;2024-03-23T06:46:56;100499.28;;;5.85;58.81
68822;BME280;55834;50.870;4.606;2024-03-23T06:49:22;100500.75;;;6.07;57.49
68822;BME280;55834;50.870;4.606;2024-03-23T06:51:48;100508.44;;;5.53;58.31
68822;BME280;55834;50.870;4.606;2024-03-23T06:54:13;100488.63;;;5.99;57.79
68822;BME280;55834;50.870;4.606;2024-03-23T06:56:38;100505.31;;;5.14;59.87
68822;BME280;55834;50.870;4.606;2024-03-23T06:59:04;100508.34;;;5.58;58.88
68822;BME280;55834;50.870;4.606;2024-03-23T07:01:29;100511.53;;;5.86;58.39
68822;BME280;55834;50.870;4.606;2024-03-23T07:03:55;100511.47;;;5.87;57.09
68822;BME280;55834;50.870;4.606;2024-03-23T07:06:21;100504.91;;;6.22;56.97
68822;BME280;55834;50.870;4.606;2024-03-23T07:08:46;100510.38;;;6.07;57.65
68822;BME280;55834;50.870;4.606;2024-03-23T07:11:12;100511.22;;;6.09;57.40
68822;BME280;55834;50.870;4.606;2024-03-23T07:13:37;100510.94;;;6.29;56.33
68822;BME280;55834;50.870;4.606;2024-03-23T07:16:03;100514.91;;;5.15;59.58
68822;BME280;55834;50.870;4.606;2024-03-23T07:18:28;100510.13;;;5.56;59.87
68822;BME280;55834;50.870;4.606;2024-03-23T07:20:57;100522.31;;;5.58;58.52
68822;BME280;55834;50.870;4.606;2024-03-23T07:23:24;100520.59;;;5.57;59.41
68822;BME280;55834;50.870;4.606;2024-03-23T07:26:05;100523.91;;;4.82;60.41
68822;BME280;55834;50.870;4.606;2024-03-23T07:28:33;100520.41;;;5.74;59.51
68822;BME280;55834;50.870;4.606;2024-03-23T07:31:13;100521.97;;;5.01;59.04
68822;BME280;55834;50.870;4.606;2024-03-23T07:33:44;100522.78;;;5.93;58.58
68822;BME280;55834;50.870;4.606;2024-03-23T07:36:10;100524.81;;;5.69;57.10
68822;BME280;55834;50.870;4.606;2024-03-23T07:38:35;100521.97;;;5.89;55.74
68822;BME280;55834;50.870;4.606;2024-03-23T07:41:04;100520.97;;;5.98;56.47
68822;BME280;55834;50.870;4.606;2024-03-23T07:43:30;100524.97;;;5.57;57.57
68822;BME280;55834;50.870;4.606;2024-03-23T07:45:55;100520.75;;;6.13;56.45
68822;BME280;55834;50.870;4.606;2024-03-23T07:48:21;100525.22;;;5.32;56.48
68822;BME280;55834;50.870;4.606;2024-03-23T07:51:03;100529.56;;;6.09;56.58
68822;BME280;55834;50.870;4.606;2024-03-23T07:53:29;100527.59;;;6.26;55.71
68822;BME280;55834;50.870;4.606;2024-03-23T07:56:02;100526.94;;;6.72;56.37
68822;BME280;55834;50.870;4.606;2024-03-23T07:58:28;100531.19;;;6.81;55.65
68822;BME280;55834;50.870;4.606;2024-03-23T08:00:55;100527.97;;;6.61;56.46
68822;BME280;55834;50.870;4.606;2024-03-23T08:03:20;100526.00;;;6.13;58.48
68822;BME280;55834;50.870;4.606;2024-03-23T08:05:46;100534.03;;;5.99;57.71
68822;BME280;55834;50.870;4.606;2024-03-23T08:08:12;100522.78;;;6.57;58.23
68822;BME280;55834;50.870;4.606;2024-03-23T08:10:50;100522.09;;;6.43;57.34
68822;BME280;55834;50.870;4.606;2024-03-23T08:13:15;100516.34;;;6.18;57.30
68822;BME280;55834;50.870;4.606;2024-03-23T08:15:40;100530.34;;;7.30;57.86
68822;BME280;55834;50.870;4.606;2024-03-23T08:18:06;100514.06;;;6.54;56.52
68822;BME280;55834;50.870;4.606;2024-03-23T08:20:32;100532.16;;;6.74;58.15
68822;BME280;55834;50.870;4.606;2024-03-23T08:22:57;100524.59;;;7.08;56.30
68822;BME280;55834;50.870;4.606;2024-03-23T08:25:22;100543.81;;;6.53;55.22
68822;BME280;55834;50.870;4.606;2024-03-23T08:27:48;100542.13;;;5.82;58.89
68822;BME280;55834;50.870;4.606;2024-03-23T08:30:13;100534.94;;;5.98;57.50
68822;BME280;55834;50.870;4.606;2024-03-23T08:32:38;100535.19;;;5.78;55.96
68822;BME280;55834;50.870;4.606;2024-03-23T08:35:04;100526.84;;;6.78;57.53
68822;BME280;55834;50.870;4.606;2024-03-23T08:37:30;100537.56;;;6.63;56.98
68822;BME280;55834;50.870;4.606;2024-03-23T08:39:55;100535.69;;;6.08;57.93
68822;BME280;55834;50.870;4.606;2024-03-23T08:42:20;100540.59;;;5.63;57.06
68822;BME280;55834;50.870;4.606;2024-03-23T08:44:47;100538.22;;;5.38;58.80
68822;BME280;55834;50.870;4.606;2024-03-23T08:47:15;100525.91;;;6.21;57.26
68822;BME280;55834;50.870;4.606;2024-03-23T08:49:40;100528.94;;;6.55;56.88
68822;BME280;55834;50.870;4.606;2024-03-23T08:52:06;100531.69;;;6.44;56.16
68822;BME280;55834;50.870;4.606;2024-03-23T08:54:32;100529.50;;;6.75;55.85
68822;BME280;55834;50.870;4.606;2024-03-23T08:56:57;100532.09;;;6.78;55.66
68822;BME280;55834;50.870;4.606;2024-03-23T08:59:22;100532.56;;;5.78;56.73
68822;BME280;55834;50.870;4.606;2024-03-23T09:01:49;100531.69;;;5.78;57.04
68822;BME280;55834;50.870;4.606;2024-03-23T09:04:14;100527.94;;;5.99;56.75
68822;BME280;55834;50.870;4.606;2024-03-23T09:06:42;100518.63;;;6.40;57.25
68822;BME280;55834;50.870;4.606;2024-03-23T09:09:07;100532.31;;;6.62;53.89
68822;BME280;55834;50.870;4.606;2024-03-23T09:11:33;100532.97;;;6.77;53.35
68822;BME280;55834;50.870;4.606;2024-03-23T09:13:58;100525.19;;;6.09;52.85
68822;BME280;55834;50.870;4.606;2024-03-23T09:16:24;100532.66;;;7.47;55.10
68822;BME280;55834;50.870;4.606;2024-03-23T09:18:49;100524.19;;;8.20;52.95
68822;BME280;55834;50.870;4.606;2024-03-23T09:21:14;100538.69;;;7.04;51.39
68822;BME280;55834;50.870;4.606;2024-03-23T09:23:43;100531.97;;;6.85;50.58
68822;BME280;55834;50.870;4.606;2024-03-23T09:26:09;100531.56;;;6.55;51.56
68822;BME280;55834;50.870;4.606;2024-03-23T09:28:34;100526.56;;;6.94;51.71
68822;BME280;55834;50.870;4.606;2024-03-23T09:31:07;100523.78;;;6.47;52.35
68822;BME280;55834;50.870;4.606;2024-03-23T09:33:33;100522.03;;;6.48;51.39
68822;BME280;55834;50.870;4.606;2024-03-23T09:36:03;100527.06;;;6.60;54.26
68822;BME280;55834;50.870;4.606;2024-03-23T09:38:29;100528.13;;;6.48;51.71
68822;BME280;55834;50.870;4.606;2024-03-23T09:40:54;100525.03;;;7.32;51.28
68822;BME280;55834;50.870;4.606;2024-03-23T09:43:20;100518.84;;;7.81;50.87
68822;BME280;55834;50.870;4.606;2024-03-23T09:45:46;100525.34;;;7.61;49.37
68822;BME280;55834;50.870;4.606;2024-03-23T09:48:12;100528.47;;;6.86;52.89
68822;BME280;55834;50.870;4.606;2024-03-23T09:50:38;100518.78;;;7.39;49.86
68822;BME280;55834;50.870;4.606;2024-03-23T09:53:06;100529.94;;;5.80;49.84
68822;BME280;55834;50.870;4.606;2024-03-23T09:55:32;100521.16;;;7.03;50.87
68822;BME280;55834;50.870;4.606;2024-03-23T09:57:57;100528.22;;;7.01;50.54
68822;BME280;55834;50.870;4.606;2024-03-23T10:00:23;100521.38;;;7.85;48.68
68822;BME280;55834;50.870;4.606;2024-03-23T10:02:48;100517.53;;;7.58;50.29
68822;BME280;55834;50.870;4.606;2024-03-23T10:05:21;100522.03;;;7.53;48.79
68822;BME280;55834;50.870;4.606;2024-03-23T10:07:52;100518.88;;;7.34;49.65
68822;BME280;55834;50.870;4.606;2024-03-23T10:10:18;100502.63;;;8.02;47.17
68822;BME280;55834;50.870;4.606;2024-03-23T10:12:48;100513.72;;;7.28;47.93
68822;BME280;55834;50.870;4.606;2024-03-23T10:15:24;100504.25;;;7.67;48.45
68822;BME280;55834;50.870;4.606;2024-03-23T10:17:51;100496.97;;;8.59;46.35
68822;BME280;55834;50.870;4.606;2024-03-23T10:20:23;100508.25;;;7.84;45.25
68822;BME280;55834;50.870;4.606;2024-03-23T10:22:49;100513.88;;;7.20;47.18
68822;BME280;55834;50.870;4.606;2024-03-23T10:25:17;100519.31;;;7.10;46.04
68822;BME280;55834;50.870;4.606;2024-03-23T10:27:42;100513.84;;;7.68;45.21
68822;BME280;55834;50.870;4.606;2024-03-23T10:32:34;100501.13;;;7.47;46.57
68822;BME280;55834;50.870;4.606;2024-03-23T10:35:19;100495.47;;;6.10;48.12
68822;BME280;55834;50.870;4.606;2024-03-23T10:37:48;100499.31;;;6.47;47.55
68822;BME280;55834;50.870;4.606;2024-03-23T10:40:17;100487.47;;;7.73;47.63
68822;BME280;55834;50.870;4.606;2024-03-23T10:42:44;100486.84;;;8.02;45.07
68822;BME280;55834;50.870;4.606;2024-03-23T10:45:10;100498.31;;;6.55;45.65
68822;BME280;55834;50.870;4.606;2024-03-23T10:47:36;100494.19;;;6.95;45.83
68822;BME280;55834;50.870;4.606;2024-03-23T10:50:05;100493.41;;;6.90;46.52
68822;BME280;55834;50.870;4.606;2024-03-23T10:52:34;100499.28;;;6.50;49.49
68822;BME280;55834;50.870;4.606;2024-03-23T10:55:03;100489.31;;;7.24;48.79
68822;BME280;55834;50.870;4.606;2024-03-23T10:57:34;100489.81;;;7.43;48.17
68822;BME280;55834;50.870;4.606;2024-03-23T11:00:03;100469.53;;;7.94;46.80
68822;BME280;55834;50.870;4.606;2024-03-23T11:02:29;100473.94;;;8.69;45.83
68822;BME280;55834;50.870;4.606;2024-03-23T11:04:55;100468.47;;;8.41;45.73
68822;BME280;55834;50.870;4.606;2024-03-23T11:09:52;100463.44;;;7.90;44.05
68822;BME280;55834;50.870;4.606;2024-03-23T11:14:47;100465.97;;;7.95;43.75
68822;BME280;55834;50.870;4.606;2024-03-23T11:17:18;100459.44;;;7.74;44.65
68822;BME280;55834;50.870;4.606;2024-03-23T11:19:43;100458.84;;;8.40;42.71
68822;BME280;55834;50.870;4.606;2024-03-23T11:22:09;100464.13;;;8.00;42.43
68822;BME280;55834;50.870;4.606;2024-03-23T11:24:34;100450.19;;;9.05;43.36
68822;BME280;55834;50.870;4.606;2024-03-23T11:27:00;100442.22;;;8.38;42.41
68822;BME280;55834;50.870;4.606;2024-03-23T11:29:27;100450.66;;;8.15;41.72
68822;BME280;55834;50.870;4.606;2024-03-23T11:31:53;100431.31;;;8.55;41.39
68822;BME280;55834;50.870;4.606;2024-03-23T11:34:19;100425.78;;;8.66;41.84
68822;BME280;55834;50.870;4.606;2024-03-23T11:36:46;100434.56;;;8.29;40.81
68822;BME280;55834;50.870;4.606;2024-03-23T11:39:20;100428.84;;;7.69;40.89
68822;BME280;55834;50.870;4.606;2024-03-23T11:41:50;100425.63;;;7.55;43.89
68822;BME280;55834;50.870;4.606;2024-03-23T11:46:41;100430.00;;;8.71;38.95
68822;BME280;55834;50.870;4.606;2024-03-23T11:49:19;100423.91;;;8.33;39.82
68822;BME280;55834;50.870;4.606;2024-03-23T11:51:46;100424.19;;;7.40;40.02
68822;BME280;55834;50.870;4.606;2024-03-23T11:54:12;100408.25;;;7.90;41.06
68822;BME280;55834;50.870;4.606;2024-03-23T11:56:37;100419.41;;;9.07;40.37
68822;BME280;55834;50.870;4.606;2024-03-23T11:59:03;100419.50;;;8.35;40.67
68822;BME280;55834;50.870;4.606;2024-03-23T12:01:28;100414.31;;;8.31;40.86
68822;BME280;55834;50.870;4.606;2024-03-23T12:03:53;100420.53;;;8.64;43.20
68822;BME280;55834;50.870;4.606;2024-03-23T12:06:19;100421.94;;;8.43;40.35
68822;BME280;55834;50.870;4.606;2024-03-23T12:08:45;100418.09;;;8.91;39.85
68822;BME280;55834;50.870;4.606;2024-03-23T12:11:12;100393.25;;;9.32;41.37
68822;BME280;55834;50.870;4.606;2024-03-23T12:13:38;100417.47;;;8.09;41.38
68822;BME280;55834;50.870;4.606;2024-03-23T12:16:12;100402.53;;;8.81;38.72
68822;BME280;55834;50.870;4.606;2024-03-23T12:18:39;100410.13;;;8.24;43.98
68822;BME280;55834;50.870;4.606;2024-03-23T12:21:05;100399.97;;;8.46;41.24
68822;BME280;55834;50.870;4.606;2024-03-23T12:23:30;100400.91;;;8.06;42.16
68822;BME280;55834;50.870;4.606;2024-03-23T12:25:56;100392.78;;;8.85;43.33
68822;BME280;55834;50.870;4.606;2024-03-23T12:28:21;100393.75;;;8.48;40.61
68822;BME280;55834;50.870;4.606;2024-03-23T12:30:46;100385.81;;;7.75;42.93
68822;BME280;55834;50.870;4.606;2024-03-23T12:33:12;100378.19;;;7.64;42.16
68822;BME280;55834;50.870;4.606;2024-03-23T12:35:37;100381.06;;;8.30;41.94
68822;BME280;55834;50.870;4.606;2024-03-23T12:38:03;100396.94;;;7.46;42.12
68822;BME280;55834;50.870;4.606;2024-03-23T12:40:28;100401.72;;;7.27;43.09
68822;BME280;55834;50.870;4.606;2024-03-23T12:42:54;100399.91;;;6.84;44.83
68822;BME280;55834;50.870;4.606;2024-03-23T12:45:21;100390.69;;;7.53;43.83
68822;BME280;55834;50.870;4.606;2024-03-23T12:47:46;100374.50;;;8.10;40.76
68822;BME280;55834;50.870;4.606;2024-03-23T12:50:11;100375.03;;;8.25;40.87
68822;BME280;55834;50.870;4.606;2024-03-23T12:52:37;100372.25;;;8.31;39.55
68822;BME280;55834;50.870;4.606;2024-03-23T12:55:03;100374.03;;;8.65;38.67
68822;BME280;55834;50.870;4.606;2024-03-23T12:57:31;100374.78;;;8.70;40.40
68822;BME280;55834;50.870;4.606;2024-03-23T12:59:56;100366.94;;;8.99;40.38
68822;BME280;55834;50.870;4.606;2024-03-23T13:02:22;100371.66;;;8.54;41.90
68822;BME280;55834;50.870;4.606;2024-03-23T13:04:54;100358.00;;;8.05;39.84
68822;BME280;55834;50.870;4.606;2024-03-23T13:07:21;100360.16;;;8.24;42.79
68822;BME280;55834;50.870;4.606;2024-03-23T13:09:47;100349.19;;;9.06;42.26
68822;BME280;55834;50.870;4.606;2024-03-23T13:12:12;100352.63;;;9.10;39.90
68822;BME280;55834;50.870;4.606;2024-03-23T13:14:41;100342.81;;;9.46;38.63
68822;BME280;55834;50.870;4.606;2024-03-23T13:17:06;100339.41;;;9.42;39.82
68822;BME280;55834;50.870;4.606;2024-03-23T13:19:32;100327.63;;;9.24;40.14
68822;BME280;55834;50.870;4.606;2024-03-23T13:21:58;100321.28;;;9.61;37.92
68822;BME280;55834;50.870;4.606;2024-03-23T13:24:25;100333.47;;;9.04;38.45
68822;BME280;55834;50.870;4.606;2024-03-23T13:26:52;100331.19;;;8.92;36.83
68822;BME280;55834;50.870;4.606;2024-03-23T13:29:18;100330.19;;;7.94;38.05
68822;BME280;55834;50.870;4.606;2024-03-23T13:31:44;100337.06;;;7.99;40.12
68822;BME280;55834;50.870;4.606;2024-03-23T13:34:09;100322.91;;;8.41;38.22
68822;BME280;55834;50.870;4.606;2024-03-23T13:36:35;100328.31;;;7.99;37.52
68822;BME280;55834;50.870;4.606;2024-03-23T13:39:02;100340.69;;;7.14;41.45
68822;BME280;55834;50.870;4.606;2024-03-23T13:41:31;100346.63;;;6.81;41.59
68822;BME280;55834;50.870;4.606;2024-03-23T13:43:57;100357.53;;;6.56;43.65
68822;BME280;55834;50.870;4.606;2024-03-23T13:46:22;100334.78;;;6.58;46.94
68822;BME280;55834;50.870;4.606;2024-03-23T13:48:47;100346.97;;;6.09;47.26
68822;BME280;55834;50.870;4.606;2024-03-23T13:51:13;100341.09;;;6.46;45.44
68822;BME280;55834;50.870;4.606;2024-03-23T13:53:38;100345.00;;;6.22;45.61
68822;BME280;55834;50.870;4.606;2024-03-23T13:56:04;100335.56;;;6.62;44.99
68822;BME280;55834;50.870;4.606;2024-03-23T13:58:30;100330.13;;;6.74;44.24
68822;BME280;55834;50.870;4.606;2024-03-23T14:00:56;100355.50;;;5.65;45.34